createdAt,value
2023-04-30T00:03:36.472Z,100354.69
2023-04-30T00:08:38.827Z,100360.06
2023-04-30T00:13:42.531Z,100366.78
2023-04-30T00:18:44.743Z,100366.50
2023-04-30T00:23:46.962Z,100354.16
2023-04-30T00:28:49.185Z,100348.88
2023-04-30T00:33:51.439Z,100360.91
2023-04-30T00:38:53.578Z,100354.69
2023-04-30T00:43:55.739Z,100362.19
2023-04-30T00:48:58.007Z,100360.69
2023-04-30T00:54:03.554Z,100345.22
2023-04-30T00:59:05.859Z,100359.88
2023-04-30T01:04:08.056Z,100342.13
2023-04-30T01:09:10.876Z,100351.44
2023-04-30T01:14:24.364Z,100337.00
2023-04-30T01:19:46.349Z,100353.16
2023-04-30T01:25:22.701Z,100350.00
2023-04-30T01:30:25.906Z,100322.75
2023-04-30T01:35:58.583Z,100346.53
2023-04-30T01:41:32.634Z,100343.81
2023-04-30T01:46:35.466Z,100347.91
2023-04-30T01:51:43.048Z,100348.38
2023-04-30T01:56:57.080Z,100352.28
2023-04-30T02:01:59.505Z,100339.25
2023-04-30T02:07:01.951Z,100347.97
2023-04-30T02:12:04.792Z,100334.03
2023-04-30T02:17:06.991Z,100331.34
2023-04-30T02:22:09.190Z,100334.59
2023-04-30T02:27:11.392Z,100337.06
2023-04-30T02:32:13.631Z,100327.41
2023-04-30T02:37:16.555Z,100338.78
2023-04-30T02:42:18.784Z,100337.88
2023-04-30T02:47:21.070Z,100345.03
2023-04-30T02:52:23.231Z,100351.50
2023-04-30T02:57:25.419Z,100346.78
2023-04-30T03:02:27.653Z,100369.41
2023-04-30T03:07:29.900Z,100359.38
2023-04-30T03:12:32.062Z,100353.09
2023-04-30T03:17:34.359Z,100377.81
2023-04-30T03:22:36.630Z,100362.47
2023-04-30T03:27:39.565Z,100370.53
2023-04-30T03:32:54.501Z,100367.94
2023-04-30T03:37:56.805Z,100339.28
2023-04-30T03:42:58.969Z,100357.09
2023-04-30T03:48:01.180Z,100371.88
2023-04-30T03:53:03.698Z,100365.31
2023-04-30T03:58:06.042Z,100370.56
2023-04-30T04:03:08.468Z,100382.56
2023-04-30T04:08:11.077Z,100391.69
2023-04-30T04:13:13.500Z,100392.13
2023-04-30T04:18:15.718Z,100375.50
2023-04-30T04:23:17.880Z,100374.56
2023-04-30T04:28:20.105Z,100383.66
2023-04-30T04:33:22.272Z,100382.63
2023-04-30T04:38:24.743Z,100411.63
2023-04-30T04:43:26.958Z,100414.56
2023-04-30T04:48:29.056Z,100434.94
2023-04-30T04:53:32.915Z,100405.69
2023-04-30T04:58:36.436Z,100418.13
2023-04-30T05:03:39.020Z,100417.19
2023-04-30T05:08:41.246Z,100404.19
2023-04-30T05:13:43.358Z,100423.25
2023-04-30T05:18:45.590Z,100416.03
2023-04-30T05:23:47.850Z,100411.78
2023-04-30T05:28:50.034Z,100429.09
2023-04-30T05:33:52.328Z,100440.19
2023-04-30T05:38:54.628Z,100434.31
2023-04-30T05:43:56.895Z,100429.19
2023-04-30T05:48:59.137Z,100419.19
2023-04-30T05:54:01.241Z,100452.16
2023-04-30T05:59:03.425Z,100451.94
2023-04-30T06:04:05.652Z,100459.91
2023-04-30T06:09:07.960Z,100460.47
2023-04-30T06:14:11.004Z,100436.31
2023-04-30T06:19:13.360Z,100434.56
2023-04-30T06:24:15.759Z,100447.22
2023-04-30T06:29:19.530Z,100438.34
2023-04-30T06:34:21.694Z,100453.16
2023-04-30T06:39:23.906Z,100449.44
2023-04-30T06:44:26.086Z,100446.84
2023-04-30T06:49:28.395Z,100441.72
2023-04-30T06:54:30.789Z,100450.78
2023-04-30T06:59:33.127Z,100466.28
2023-04-30T07:04:35.341Z,100463.25
2023-04-30T07:09:37.935Z,100454.06
2023-04-30T07:14:40.697Z,100468.09
2023-04-30T07:19:43.028Z,100450.13
2023-04-30T07:24:45.144Z,100439.75
2023-04-30T07:29:47.237Z,100465.47
2023-04-30T07:34:49.517Z,100434.44
2023-04-30T07:39:51.781Z,100475.19
2023-04-30T07:44:53.950Z,100462.25
2023-04-30T07:49:56.405Z,100462.41
2023-04-30T07:54:58.705Z,100469.59
2023-04-30T08:00:01.426Z,100452.00
2023-04-30T08:05:04.414Z,100478.00
2023-04-30T08:10:07.096Z,100451.00
2023-04-30T08:15:09.313Z,100454.09
2023-04-30T08:20:11.800Z,100465.63
2023-04-30T08:25:14.243Z,100425.59
2023-04-30T08:30:16.782Z,100454.25
2023-04-30T08:35:19.115Z,100450.09
2023-04-30T08:40:23.514Z,100456.72
2023-04-30T08:45:28.306Z,100438.50
2023-04-30T08:50:31.948Z,100459.09
2023-04-30T08:55:35.127Z,100445.91
2023-04-30T09:00:38.932Z,100442.19
2023-04-30T09:05:42.145Z,100433.13
2023-04-30T09:10:44.452Z,100429.72
2023-04-30T09:15:52.584Z,100435.50
2023-04-30T09:21:01.923Z,100426.13
2023-04-30T09:26:04.622Z,100424.34
2023-04-30T09:31:20.812Z,100407.34
2023-04-30T09:36:23.146Z,100402.97
2023-04-30T09:41:29.537Z,100405.75
2023-04-30T09:46:33.931Z,100414.91
2023-04-30T09:51:37.556Z,100398.00
2023-04-30T09:56:40.106Z,100383.34
2023-04-30T10:01:42.684Z,100382.44
2023-04-30T10:06:45.653Z,100373.81
2023-04-30T10:11:48.118Z,100367.59
2023-04-30T10:17:06.381Z,100371.91
2023-04-30T10:22:09.792Z,100378.41
2023-04-30T10:27:12.686Z,100358.50
2023-04-30T10:32:16.062Z,100347.09
2023-04-30T10:37:31.713Z,100363.25
2023-04-30T10:42:36.355Z,100358.88
2023-04-30T10:47:39.712Z,100341.91
2023-04-30T10:52:41.965Z,100325.19
2023-04-30T10:57:46.907Z,100318.91
2023-04-30T11:02:50.146Z,100315.31
2023-04-30T11:07:57.703Z,100333.56
2023-04-30T11:13:05.285Z,100318.34
2023-04-30T11:18:08.869Z,100305.91
2023-04-30T11:23:19.627Z,100322.56
2023-04-30T11:28:26.698Z,100293.97
2023-04-30T11:33:31.030Z,100312.84
2023-04-30T11:38:37.490Z,100300.06
2023-04-30T11:43:39.621Z,100281.84
2023-04-30T11:48:44.313Z,100285.66
2023-04-30T11:53:48.136Z,100279.75
2023-04-30T11:58:52.286Z,100284.16
2023-04-30T12:03:57.859Z,100256.47
2023-04-30T12:09:02.091Z,100270.16
2023-04-30T12:14:05.620Z,100272.84
2023-04-30T12:19:07.989Z,100254.34
2023-04-30T12:24:12.156Z,100233.53
2023-04-30T12:29:18.709Z,100230.25
2023-04-30T12:34:20.992Z,100228.44
2023-04-30T12:39:23.190Z,100242.00
2023-04-30T12:44:27.904Z,100229.03
2023-04-30T12:49:34.051Z,100212.31
2023-04-30T12:54:37.368Z,100204.25
2023-04-30T13:00:11.969Z,100228.84
2023-04-30T13:05:15.891Z,100216.19
2023-04-30T13:10:18.955Z,100221.19
2023-04-30T13:15:21.193Z,100193.72
2023-04-30T13:20:25.245Z,100214.69
2023-04-30T13:25:27.526Z,100182.75
2023-04-30T13:30:30.188Z,100187.41
2023-04-30T13:35:32.386Z,100192.16
2023-04-30T13:40:34.562Z,100179.13
2023-04-30T13:45:36.764Z,100159.59
2023-04-30T13:50:38.929Z,100153.34
2023-04-30T13:55:41.339Z,100120.13
2023-04-30T14:00:43.918Z,100176.13
2023-04-30T14:05:46.995Z,100085.59
2023-04-30T14:10:49.217Z,100132.59
2023-04-30T14:15:52.194Z,100126.47
2023-04-30T14:20:54.356Z,100141.13
2023-04-30T14:25:56.793Z,100151.50
2023-04-30T14:30:58.963Z,100163.19
2023-04-30T14:36:01.584Z,100148.69
2023-04-30T14:41:03.745Z,100128.09
2023-04-30T14:46:06.034Z,100147.22
2023-04-30T14:51:08.635Z,100130.06
2023-04-30T14:56:10.911Z,100147.81
2023-04-30T15:01:13.138Z,100151.13
2023-04-30T15:06:15.869Z,100142.00
2023-04-30T15:11:18.515Z,100150.06
2023-04-30T15:16:20.764Z,100146.50
2023-04-30T15:21:23.204Z,100147.66
2023-04-30T15:26:26.296Z,100135.44
2023-04-30T15:31:28.607Z,100142.91
2023-04-30T15:36:32.284Z,100128.38
2023-04-30T15:41:34.498Z,100133.88
2023-04-30T15:46:36.808Z,100120.31
2023-04-30T15:51:39.058Z,100139.91
2023-04-30T15:56:41.607Z,100137.22
2023-04-30T16:01:44.138Z,100145.59
2023-04-30T16:06:46.996Z,100133.41
2023-04-30T16:11:49.699Z,100166.28
2023-04-30T16:16:52.568Z,100151.44
2023-04-30T16:21:54.990Z,100144.38
2023-04-30T16:26:57.919Z,100120.53
2023-04-30T16:32:00.240Z,100151.13
2023-04-30T16:37:02.518Z,100171.31
2023-04-30T16:42:04.732Z,100166.09
2023-04-30T16:47:07.288Z,100184.84
2023-04-30T16:52:09.466Z,100201.84
2023-04-30T16:57:11.638Z,100192.72
2023-04-30T17:02:13.965Z,100173.31
2023-04-30T17:07:17.817Z,100197.34
2023-04-30T17:12:20.086Z,100131.34
2023-04-30T17:17:22.378Z,100118.50
2023-04-30T17:22:25.368Z,100236.16
2023-04-30T17:27:28.193Z,100239.63
2023-04-30T17:32:30.833Z,100250.94
2023-04-30T17:37:33.610Z,100204.31
2023-04-30T17:42:36.099Z,100159.53
2023-04-30T17:47:38.622Z,100200.25
2023-04-30T17:52:41.169Z,100176.19
2023-04-30T17:57:43.483Z,100244.53
2023-04-30T18:02:46.296Z,100141.34
2023-04-30T18:07:49.325Z,100213.47
2023-04-30T18:12:53.022Z,100221.88
2023-04-30T18:17:55.665Z,100305.28
2023-04-30T18:22:57.933Z,100282.22
2023-04-30T18:28:00.551Z,100313.34
2023-04-30T18:33:06.067Z,100316.69
2023-04-30T18:38:08.563Z,100328.94
2023-04-30T18:43:11.075Z,100326.59
2023-04-30T18:48:15.569Z,100345.13
2023-04-30T18:53:18.946Z,100335.69
2023-04-30T18:58:21.193Z,100307.84
2023-04-30T19:03:23.482Z,100331.69
2023-04-30T19:08:25.849Z,100336.03
2023-04-30T19:13:28.142Z,100343.13
2023-04-30T19:18:30.307Z,100352.31
2023-04-30T19:23:32.692Z,100334.94
2023-04-30T19:28:34.876Z,100391.63
2023-04-30T19:33:39.829Z,100393.19
2023-04-30T19:38:42.036Z,100368.44
2023-04-30T19:43:44.228Z,100373.34
2023-04-30T19:48:46.837Z,100381.25
2023-04-30T19:53:49.132Z,100387.94
2023-04-30T19:58:51.763Z,100380.53
2023-04-30T20:03:54.175Z,100360.06
2023-04-30T20:08:59.767Z,100368.19
2023-04-30T20:14:02.086Z,100379.38
2023-04-30T20:19:04.574Z,100363.78
2023-04-30T20:24:11.351Z,100372.53
2023-04-30T20:29:13.620Z,100384.25
2023-04-30T20:34:15.815Z,100380.81
2023-04-30T20:39:18.959Z,100389.22
2023-04-30T20:44:21.092Z,100360.41
2023-04-30T20:49:23.472Z,100371.88
2023-04-30T20:54:26.196Z,100387.50
2023-04-30T20:59:28.398Z,100389.84
2023-04-30T21:04:31.461Z,100399.97
2023-04-30T21:09:34.938Z,100390.25
2023-04-30T21:14:37.871Z,100411.84
2023-04-30T21:19:40.077Z,100406.16
2023-04-30T21:24:42.872Z,100413.53
2023-04-30T21:29:45.064Z,100379.50
2023-04-30T21:34:47.191Z,100432.03
2023-04-30T21:39:49.327Z,100425.41
2023-04-30T21:44:51.528Z,100433.22
2023-04-30T21:49:53.906Z,100442.00
2023-04-30T21:54:56.426Z,100458.81
2023-04-30T22:00:04.230Z,100465.13
2023-04-30T22:05:06.868Z,100455.81
2023-04-30T22:10:09.199Z,100469.28
2023-04-30T22:15:12.528Z,100455.16
2023-04-30T22:20:15.011Z,100416.81
2023-04-30T22:25:18.171Z,100461.03
2023-04-30T22:30:20.456Z,100430.72
2023-04-30T22:35:23.358Z,100473.22
2023-04-30T22:40:25.669Z,100454.19
2023-04-30T22:45:30.553Z,100441.91
2023-04-30T22:50:33.001Z,100421.19
2023-04-30T22:55:36.322Z,100447.84
2023-04-30T23:00:42.151Z,100461.31
2023-04-30T23:05:45.015Z,100439.47
2023-04-30T23:10:47.988Z,100383.69
2023-04-30T23:15:53.583Z,100371.66
2023-04-30T23:20:59.181Z,100389.13
2023-04-30T23:26:01.936Z,100423.91
2023-04-30T23:31:04.351Z,100403.91
2023-04-30T23:36:06.945Z,100418.63
2023-04-30T23:41:09.498Z,100422.41
2023-04-30T23:46:11.854Z,100420.03
2023-04-30T23:51:14.130Z,100423.94
2023-04-30T23:56:17.558Z,100402.59
